createdAt,value
2023-04-08T00:00:58.242Z,8.60
2023-04-08T00:04:00.918Z,8.80
2023-04-08T00:07:03.619Z,8.33
2023-04-08T00:10:07.626Z,9.70
2023-04-08T00:13:10.378Z,8.97
2023-04-08T00:16:14.534Z,9.10
2023-04-08T00:19:17.175Z,8.80
2023-04-08T00:22:20.018Z,9.23
2023-04-08T00:25:24.797Z,9.13
2023-04-08T00:28:28.063Z,9.27
2023-04-08T00:31:32.051Z,9.10
2023-04-08T00:34:34.643Z,8.97
2023-04-08T00:37:37.256Z,9.00
2023-04-08T00:40:39.875Z,7.83
2023-04-08T00:43:42.474Z,8.47
2023-04-08T00:46:47.383Z,9.03
2023-04-08T00:49:50.448Z,8.27
2023-04-08T00:52:53.085Z,7.60
2023-04-08T00:55:55.705Z,7.50
2023-04-08T00:58:58.680Z,7.37
2023-04-08T01:02:13.592Z,7.73
2023-04-08T01:05:22.779Z,7.50
2023-04-08T01:08:29.755Z,7.93
2023-04-08T01:11:35.698Z,7.67
2023-04-08T01:14:43.933Z,7.33
2023-04-08T01:17:49.178Z,7.50
2023-04-08T01:20:53.148Z,7.83
2023-04-08T01:24:02.289Z,7.20
2023-04-08T01:27:07.895Z,7.50
2023-04-08T01:30:11.645Z,8.03
2023-04-08T01:33:16.315Z,7.57
2023-04-08T01:36:21.151Z,7.67
2023-04-08T01:39:25.059Z,7.50
2023-04-08T01:42:30.762Z,7.63
2023-04-08T01:45:33.342Z,7.87
2023-04-08T01:48:37.122Z,7.63
2023-04-08T01:51:40.474Z,7.60
2023-04-08T01:54:43.115Z,7.50
2023-04-08T01:57:50.841Z,7.37
2023-04-08T02:00:55.830Z,7.40
2023-04-08T02:04:00.411Z,7.60
2023-04-08T02:07:03.716Z,7.20
2023-04-08T02:10:07.500Z,8.13
2023-04-08T02:13:11.467Z,7.10
2023-04-08T02:16:19.584Z,7.40
2023-04-08T02:19:31.557Z,7.67
2023-04-08T02:22:41.824Z,6.90
2023-04-08T02:25:46.337Z,7.00
2023-04-08T02:28:51.074Z,6.87
2023-04-08T02:31:54.954Z,6.87
2023-04-08T02:34:58.905Z,7.13
2023-04-08T02:38:01.617Z,6.73
2023-04-08T02:41:04.393Z,6.10
2023-04-08T02:44:08.334Z,6.77
2023-04-08T02:47:10.957Z,7.03
2023-04-08T02:50:13.553Z,7.17
2023-04-08T02:53:16.168Z,6.40
2023-04-08T02:56:18.744Z,5.97
2023-04-08T02:59:22.722Z,7.33
2023-04-08T03:02:25.446Z,6.97
2023-04-08T03:05:28.206Z,7.47
2023-04-08T03:08:30.794Z,7.83
2023-04-08T03:11:33.415Z,7.20
2023-04-08T03:14:37.358Z,7.93
2023-04-08T03:17:40.042Z,7.67
2023-04-08T03:20:42.649Z,7.67
2023-04-08T03:23:45.635Z,8.30
2023-04-08T03:26:48.283Z,8.80
2023-04-08T03:29:53.010Z,8.90
2023-04-08T03:32:56.075Z,9.03
2023-04-08T03:35:58.817Z,9.17
2023-04-08T03:39:03.654Z,10.63
2023-04-08T03:42:06.248Z,9.63
2023-04-08T03:45:10.754Z,10.03
2023-04-08T03:48:13.347Z,10.40
2023-04-08T03:51:16.009Z,10.57
2023-04-08T03:54:18.687Z,10.50
2023-04-08T03:57:21.280Z,10.27
2023-04-08T04:00:25.457Z,10.67
2023-04-08T04:03:28.189Z,10.70
2023-04-08T04:06:31.107Z,11.07
2023-04-08T04:09:33.702Z,10.93
2023-04-08T04:12:36.307Z,10.43
2023-04-08T04:15:41.206Z,10.17
2023-04-08T04:18:43.913Z,10.97
2023-04-08T04:21:46.535Z,10.73
2023-04-08T04:24:49.506Z,11.20
2023-04-08T04:27:52.076Z,11.27
2023-04-08T04:30:56.728Z,11.03
2023-04-08T04:34:00.756Z,11.90
2023-04-08T04:37:03.503Z,10.23
2023-04-08T04:40:07.563Z,11.10
2023-04-08T04:43:10.299Z,10.97
2023-04-08T04:46:14.293Z,11.50
2023-04-08T04:49:16.906Z,10.67
2023-04-08T04:52:19.546Z,11.20
2023-04-08T04:55:23.349Z,11.67
2023-04-08T04:58:26.067Z,11.73
2023-04-08T05:01:30.056Z,25.77
2023-04-08T05:04:32.708Z,13.40
2023-04-08T05:07:36.932Z,11.00
2023-04-08T05:10:42.305Z,16.40
2023-04-08T05:13:44.966Z,12.17
2023-04-08T05:16:48.898Z,11.53
2023-04-08T05:19:51.965Z,12.10
2023-04-08T05:22:54.547Z,11.43
2023-04-08T05:25:57.178Z,12.20
2023-04-08T05:28:59.866Z,11.20
2023-04-08T05:32:03.835Z,11.67
2023-04-08T05:35:07.286Z,11.40
2023-04-08T05:38:09.922Z,11.43
2023-04-08T05:41:12.769Z,10.30
2023-04-08T05:44:15.494Z,10.87
2023-04-08T05:47:19.417Z,10.83
2023-04-08T05:50:22.012Z,10.50
2023-04-08T05:53:24.960Z,10.50
2023-04-08T05:56:27.564Z,10.77
2023-04-08T05:59:30.239Z,9.80
2023-04-08T06:02:34.261Z,15.50
2023-04-08T06:05:36.953Z,10.53
2023-04-08T06:08:39.528Z,9.23
2023-04-08T06:11:42.108Z,9.27
2023-04-08T06:14:44.764Z,9.40
2023-04-08T06:17:48.715Z,9.77
2023-04-08T06:20:51.545Z,9.40
2023-04-08T06:23:54.187Z,8.80
2023-04-08T06:26:57.168Z,9.10
2023-04-08T06:29:59.784Z,10.10
2023-04-08T06:33:03.785Z,10.07
2023-04-08T06:36:07.959Z,9.73
2023-04-08T06:39:10.619Z,10.57
2023-04-08T06:42:13.221Z,11.90
2023-04-08T06:45:15.820Z,16.67
2023-04-08T06:48:19.766Z,11.53
2023-04-08T06:51:22.386Z,11.93
2023-04-08T06:54:24.998Z,11.97
2023-04-08T06:57:27.599Z,11.93
2023-04-08T07:00:30.513Z,11.10
2023-04-08T07:03:34.617Z,10.33
2023-04-08T07:06:37.280Z,9.37
2023-04-08T07:09:41.358Z,11.50
2023-04-08T07:12:43.967Z,10.20
2023-04-08T07:15:46.755Z,9.17
2023-04-08T07:18:51.913Z,9.67
2023-04-08T07:21:54.820Z,10.10
2023-04-08T07:24:57.392Z,10.43
2023-04-08T07:27:59.962Z,10.70
2023-04-08T07:31:13.971Z,11.50
2023-04-08T07:34:17.958Z,11.00
2023-04-08T07:37:20.704Z,11.10
2023-04-08T07:40:23.274Z,10.00
2023-04-08T07:43:25.877Z,10.20
2023-04-08T07:46:28.467Z,9.77
2023-04-08T07:49:32.459Z,9.67
2023-04-08T07:52:35.129Z,9.27
2023-04-08T07:55:39.239Z,10.13
2023-04-08T07:58:42.207Z,9.40
2023-04-08T08:01:44.908Z,10.27
2023-04-08T08:04:48.948Z,17.03
2023-04-08T08:07:51.568Z,14.57
2023-04-08T08:10:54.144Z,12.57
2023-04-08T08:13:56.885Z,11.00
2023-04-08T08:16:59.596Z,10.47
2023-04-08T08:20:04.871Z,10.30
2023-04-08T08:23:07.450Z,10.40
2023-04-08T08:26:11.134Z,10.70
2023-04-08T08:29:13.783Z,10.30
2023-04-08T08:32:16.426Z,10.23
2023-04-08T08:35:20.402Z,9.57
2023-04-08T08:38:23.018Z,9.50
2023-04-08T08:41:25.652Z,9.57
2023-04-08T08:44:28.404Z,8.73
2023-04-08T08:47:31.982Z,7.97
2023-04-08T08:50:36.324Z,8.90
2023-04-08T08:53:39.188Z,9.07
2023-04-08T08:56:43.373Z,8.90
2023-04-08T08:59:47.289Z,9.60
2023-04-08T09:02:50.111Z,9.03
2023-04-08T09:05:56.570Z,10.53
2023-04-08T09:08:59.165Z,10.27
2023-04-08T09:12:04.891Z,10.87
2023-04-08T09:15:09.370Z,10.87
2023-04-08T09:18:22.825Z,9.70
2023-04-08T09:21:27.382Z,10.17
2023-04-08T09:24:31.908Z,9.10
2023-04-08T09:27:35.919Z,10.13
2023-04-08T09:30:38.751Z,8.77
2023-04-08T09:33:41.367Z,9.80
2023-04-08T09:36:45.714Z,11.13
2023-04-08T09:39:48.784Z,10.03
2023-04-08T09:42:56.184Z,10.17
2023-04-08T09:46:02.527Z,10.47
2023-04-08T09:49:08.252Z,10.43
2023-04-08T09:52:17.938Z,9.80
2023-04-08T09:55:23.584Z,10.60
2023-04-08T09:58:29.693Z,10.10
2023-04-08T10:01:39.152Z,10.30
2023-04-08T10:04:45.354Z,10.40
2023-04-08T10:07:51.354Z,10.47
2023-04-08T10:10:56.254Z,9.87
2023-04-08T10:13:58.918Z,9.33
2023-04-08T10:17:27.427Z,9.50
2023-04-08T10:20:45.842Z,10.70
2023-04-08T10:23:59.289Z,9.83
2023-04-08T10:27:04.257Z,9.40
2023-04-08T10:30:40.116Z,9.37
2023-04-08T10:33:42.718Z,10.17
2023-04-08T10:36:45.335Z,9.87
2023-04-08T10:39:52.933Z,9.03
2023-04-08T10:42:55.920Z,10.27
2023-04-08T10:45:58.513Z,9.50
2023-04-08T10:49:01.844Z,9.27
2023-04-08T10:52:08.358Z,9.27
2023-04-08T10:55:12.854Z,10.17
2023-04-08T10:58:15.540Z,11.43
2023-04-08T11:01:18.421Z,10.67
2023-04-08T11:04:23.570Z,11.33
2023-04-08T11:07:27.060Z,12.30
2023-04-08T11:10:31.841Z,10.90
2023-04-08T11:13:34.517Z,9.97
2023-04-08T11:16:39.088Z,10.57
2023-04-08T11:19:41.904Z,10.70
2023-04-08T11:22:45.900Z,11.57
2023-04-08T11:25:50.072Z,11.20
2023-04-08T11:28:53.350Z,12.40
2023-04-08T11:31:56.229Z,12.20
2023-04-08T11:35:01.190Z,12.70
2023-04-08T11:38:06.108Z,11.93
2023-04-08T11:41:11.511Z,12.37
2023-04-08T11:44:14.218Z,13.10
2023-04-08T11:47:16.888Z,12.33
2023-04-08T11:50:25.860Z,12.30
2023-04-08T11:53:28.567Z,13.03
2023-04-08T11:56:33.615Z,12.60
2023-04-08T11:59:36.256Z,12.10
2023-04-08T12:02:38.968Z,13.57
2023-04-08T12:05:42.489Z,12.53
2023-04-08T12:08:45.150Z,12.80
2023-04-08T12:11:49.288Z,12.70
2023-04-08T12:14:51.891Z,12.33
2023-04-08T12:17:54.489Z,11.73
2023-04-08T12:20:57.338Z,12.40
2023-04-08T12:23:59.920Z,12.67
2023-04-08T12:27:04.973Z,12.70
2023-04-08T12:30:08.815Z,12.63
2023-04-08T12:33:11.409Z,12.23
2023-04-08T12:36:14.075Z,11.90
2023-04-08T12:39:16.720Z,12.13
2023-04-08T12:42:20.784Z,11.77
2023-04-08T12:45:23.421Z,12.63
2023-04-08T12:48:26.398Z,12.57
2023-04-08T12:51:29.416Z,14.30
2023-04-08T12:54:32.711Z,14.20
2023-04-08T12:57:36.676Z,15.30
2023-04-08T13:00:40.147Z,13.43
2023-04-08T13:03:44.965Z,12.57
2023-04-08T13:06:49.231Z,12.40
2023-04-08T13:35:20.787Z,24.77
2023-04-08T13:38:23.400Z,13.00
2023-04-08T13:41:28.006Z,13.10
2023-04-08T13:44:30.645Z,26.33
2023-04-08T13:47:34.240Z,24.37
2023-04-08T13:50:40.314Z,13.20
2023-04-08T13:53:42.893Z,14.27
2023-04-08T13:56:45.732Z,13.70
2023-04-08T13:59:48.324Z,15.03
2023-04-08T14:02:51.481Z,13.60
2023-04-08T14:05:55.560Z,13.40
2023-04-08T14:08:58.130Z,13.50
2023-04-08T14:12:00.754Z,15.43
2023-04-08T14:15:03.737Z,14.30
2023-04-08T14:18:08.636Z,14.87
2023-04-08T14:21:15.652Z,16.10
2023-04-08T14:24:18.367Z,18.77
2023-04-08T14:27:21.163Z,17.27
2023-04-08T14:30:23.855Z,16.10
2023-04-08T14:33:27.127Z,18.70
2023-04-08T14:36:31.391Z,18.73
2023-04-08T14:39:34.027Z,17.40
2023-04-08T14:42:36.629Z,18.10
2023-04-08T14:45:39.207Z,16.13
2023-04-08T14:48:41.816Z,16.23
2023-04-08T14:51:45.750Z,15.60
2023-04-08T14:54:48.322Z,15.17
2023-04-08T14:57:50.937Z,14.93
2023-04-08T15:00:53.601Z,16.43
2023-04-08T15:03:56.259Z,16.33
2023-04-08T15:07:00.408Z,25.33
2023-04-08T15:10:03.152Z,16.37
2023-04-08T15:13:05.821Z,16.30
2023-04-08T15:16:08.555Z,15.87
2023-04-08T15:19:11.609Z,18.00
2023-04-08T15:22:15.598Z,17.57
2023-04-08T15:25:18.346Z,16.07
2023-04-08T15:28:21.138Z,16.00
2023-04-08T15:31:23.788Z,15.73
2023-04-08T15:34:27.057Z,15.43
2023-04-08T15:37:30.982Z,16.13
2023-04-08T15:40:34.466Z,16.63
2023-04-08T15:43:37.080Z,16.70
2023-04-08T15:46:39.758Z,17.37
2023-04-08T15:49:42.524Z,16.70
2023-04-08T15:52:46.535Z,16.37
2023-04-08T15:55:50.162Z,16.87
2023-04-08T15:58:53.264Z,16.00
2023-04-08T16:01:56.072Z,16.27
2023-04-08T16:04:58.710Z,15.90
2023-04-08T16:08:02.665Z,15.53
2023-04-08T16:11:06.975Z,16.03
2023-04-08T16:14:09.591Z,16.77
2023-04-08T16:17:12.156Z,17.00
2023-04-08T16:20:14.937Z,15.93
2023-04-08T16:23:18.899Z,18.17
2023-04-08T16:26:22.256Z,16.83
2023-04-08T16:29:25.124Z,16.57
2023-04-08T16:32:27.861Z,16.67
2023-04-08T16:35:30.458Z,14.70
2023-04-08T16:38:35.434Z,15.30
2023-04-08T16:41:39.317Z,27.40
2023-04-08T16:44:41.987Z,15.57
2023-04-08T16:47:45.932Z,17.83
2023-04-08T16:50:48.724Z,15.10
2023-04-08T16:53:53.159Z,14.50
2023-04-08T16:56:56.940Z,14.03
2023-04-08T16:59:59.531Z,14.13
2023-04-08T17:03:02.340Z,14.90
2023-04-08T17:06:08.901Z,15.13
2023-04-08T17:09:13.012Z,17.63
2023-04-08T17:12:15.831Z,14.47
2023-04-08T17:15:18.512Z,14.70
2023-04-08T17:18:21.080Z,13.73
2023-04-08T17:21:23.714Z,15.87
2023-04-08T17:24:27.689Z,16.83
2023-04-08T17:27:30.317Z,16.13
2023-04-08T17:30:32.930Z,15.47
2023-04-08T17:33:35.536Z,16.70
2023-04-08T17:36:38.112Z,16.23
2023-04-08T17:39:42.062Z,19.80
2023-04-08T17:42:44.685Z,27.67
2023-04-08T17:45:49.959Z,19.10
2023-04-08T17:48:55.350Z,19.87
2023-04-08T17:51:57.923Z,19.90
2023-04-08T17:55:02.439Z,21.07
2023-04-08T17:58:05.298Z,21.87
2023-04-08T18:01:07.948Z,20.70
2023-04-08T18:04:12.224Z,20.73
2023-04-08T18:07:15.289Z,22.80
2023-04-08T18:10:19.429Z,23.83
2023-04-08T18:13:22.045Z,24.80
2023-04-08T18:16:24.656Z,25.20
2023-04-08T18:19:27.276Z,26.03
2023-04-08T18:22:29.838Z,24.67
2023-04-08T18:25:34.420Z,26.30
2023-04-08T18:28:37.094Z,27.17
2023-04-08T18:31:39.702Z,25.90
2023-04-08T18:34:42.309Z,26.10
2023-04-08T18:37:44.899Z,26.73
2023-04-08T18:40:48.839Z,29.13
2023-04-08T18:43:51.867Z,27.93
2023-04-08T18:46:54.687Z,26.53
2023-04-08T18:49:57.592Z,25.80
2023-04-08T18:53:00.212Z,27.10
2023-04-08T18:56:04.704Z,25.97
2023-04-08T18:59:07.382Z,24.03
2023-04-08T19:02:10.095Z,24.13
2023-04-08T19:05:12.792Z,25.17
2023-04-08T19:08:15.413Z,24.70
2023-04-08T19:11:19.500Z,22.97
2023-04-08T19:14:22.080Z,23.50
2023-04-08T19:17:24.688Z,24.17
2023-04-08T19:20:28.440Z,24.17
2023-04-08T19:23:32.035Z,24.50
2023-04-08T19:26:36.316Z,25.30
2023-04-08T19:29:38.893Z,26.33
2023-04-08T19:32:43.025Z,26.87
2023-04-08T19:35:45.723Z,28.13
2023-04-08T19:38:48.298Z,29.87
2023-04-08T19:41:52.328Z,31.73
2023-04-08T19:44:55.229Z,32.77
2023-04-08T19:47:58.007Z,34.70
2023-04-08T19:51:00.831Z,31.97
2023-04-08T19:54:03.439Z,31.07
2023-04-08T19:57:11.548Z,30.90
2023-04-08T20:00:14.465Z,34.37
2023-04-08T20:03:17.475Z,33.67
2023-04-08T20:06:20.914Z,32.13
2023-04-08T20:09:23.578Z,32.47
2023-04-08T20:12:27.546Z,31.20
2023-04-08T20:15:30.236Z,33.33
2023-04-08T20:18:33.297Z,32.70
2023-04-08T20:21:35.894Z,31.07
2023-04-08T20:24:38.454Z,32.00
2023-04-08T20:27:42.887Z,32.43
2023-04-08T20:30:45.638Z,32.17
2023-04-08T20:33:48.223Z,31.67
2023-04-08T20:36:50.915Z,29.97
2023-04-08T20:39:54.008Z,32.10
2023-04-08T20:42:57.999Z,32.07
2023-04-08T20:46:00.989Z,32.53
2023-04-08T20:49:04.148Z,33.60
2023-04-08T20:52:06.968Z,35.10
2023-04-08T20:55:10.429Z,34.07
2023-04-08T20:58:14.365Z,32.13
2023-04-08T21:01:17.006Z,32.80
2023-04-08T21:04:19.606Z,31.70
2023-04-08T21:07:22.161Z,32.70
2023-04-08T21:10:24.931Z,32.10
2023-04-08T21:13:28.849Z,32.97
2023-04-08T21:16:31.462Z,33.27
2023-04-08T21:19:34.107Z,33.60
2023-04-08T21:22:36.672Z,33.53
2023-04-08T21:25:39.331Z,33.77
2023-04-08T21:28:43.930Z,32.30
2023-04-08T21:31:46.703Z,33.87
2023-04-08T21:34:49.344Z,33.10
2023-04-08T21:37:52.022Z,33.93
2023-04-08T21:40:54.588Z,32.90
2023-04-08T21:43:59.187Z,31.67
2023-04-08T21:47:02.165Z,31.73
2023-04-08T21:50:05.547Z,31.93
2023-04-08T21:53:08.372Z,31.47
2023-04-08T21:56:11.218Z,30.77
2023-04-08T21:59:15.219Z,31.20
2023-04-08T22:02:17.869Z,31.77
2023-04-08T22:05:20.584Z,30.53
2023-04-08T22:08:23.194Z,34.17
2023-04-08T22:11:25.848Z,30.13
2023-04-08T22:14:29.886Z,30.93
2023-04-08T22:17:32.734Z,29.67
2023-04-08T22:20:36.456Z,29.40
2023-04-08T22:23:39.079Z,29.13
2023-04-08T22:26:41.709Z,28.97
2023-04-08T22:29:45.833Z,28.57
2023-04-08T22:32:48.464Z,30.97
2023-04-08T22:35:51.299Z,28.73
2023-04-08T22:38:54.162Z,29.10
2023-04-08T22:41:57.418Z,30.10
2023-04-08T22:45:01.824Z,30.20
2023-04-08T22:48:04.813Z,29.63
2023-04-08T22:51:07.419Z,29.37
2023-04-08T22:54:10.231Z,29.40
2023-04-08T22:57:12.801Z,31.27
2023-04-08T23:00:16.945Z,29.80
2023-04-08T23:03:19.566Z,29.53
2023-04-08T23:06:22.200Z,30.77
2023-04-08T23:09:26.623Z,29.97
2023-04-08T23:12:29.202Z,31.37
2023-04-08T23:15:33.176Z,31.67
2023-04-08T23:18:35.854Z,29.63
2023-04-08T23:21:38.460Z,30.63
2023-04-08T23:24:41.044Z,31.30
2023-04-08T23:27:43.634Z,30.90
2023-04-08T23:30:47.727Z,31.70
2023-04-08T23:33:50.910Z,30.73
2023-04-08T23:36:53.507Z,30.87
2023-04-08T23:39:56.352Z,31.23
2023-04-08T23:42:59.066Z,31.33
2023-04-08T23:46:03.214Z,32.57
2023-04-08T23:49:05.890Z,31.43
2023-04-08T23:52:08.475Z,31.80
2023-04-08T23:55:11.460Z,32.60
2023-04-08T23:58:14.257Z,32.20
